createdAt,value
2022-10-18T00:00:55.755Z,19.10
2022-10-18T00:03:24.441Z,16.50
2022-10-18T00:05:55.182Z,20.47
2022-10-18T00:08:24.763Z,18.80
2022-10-18T00:10:54.650Z,16.33
2022-10-18T00:13:23.652Z,15.98
2022-10-18T00:15:54.219Z,17.55
2022-10-18T00:18:26.489Z,15.87
2022-10-18T00:21:02.286Z,17.00
2022-10-18T00:23:32.082Z,16.20
2022-10-18T00:26:08.173Z,16.85
2022-10-18T00:28:39.248Z,16.13
2022-10-18T00:31:15.798Z,18.33
2022-10-18T00:33:47.581Z,20.55
2022-10-18T00:36:21.246Z,17.58
2022-10-18T00:38:50.208Z,18.98
2022-10-18T00:41:34.408Z,21.60
2022-10-18T00:44:25.561Z,17.97
2022-10-18T00:46:58.599Z,16.73
2022-10-18T00:49:36.256Z,16.63
2022-10-18T00:52:14.119Z,17.77
2022-10-18T00:54:43.274Z,22.23
2022-10-18T00:57:12.395Z,19.87
2022-10-18T00:59:43.128Z,19.02
2022-10-18T01:02:15.349Z,17.90
2022-10-18T01:04:47.288Z,17.38
2022-10-18T01:07:42.466Z,17.90
2022-10-18T01:10:29.856Z,17.60
2022-10-18T01:13:24.834Z,20.40
2022-10-18T01:16:15.844Z,20.67
2022-10-18T01:19:14.290Z,17.92
2022-10-18T01:21:44.096Z,17.25
2022-10-18T01:24:37.871Z,19.43
2022-10-18T01:27:13.503Z,19.30
2022-10-18T01:30:03.606Z,16.75
2022-10-18T01:32:46.562Z,18.13
2022-10-18T01:35:17.043Z,20.40
2022-10-18T01:37:49.418Z,19.87
2022-10-18T01:40:20.910Z,18.20
2022-10-18T01:42:53.497Z,20.00
2022-10-18T01:45:24.622Z,19.80
2022-10-18T01:47:56.200Z,20.48
2022-10-18T01:50:35.601Z,18.33
2022-10-18T01:53:23.915Z,19.58
2022-10-18T01:56:08.271Z,17.50
2022-10-18T01:58:41.451Z,19.15
2022-10-18T02:01:13.373Z,17.70
2022-10-18T02:03:45.313Z,19.70
2022-10-18T02:06:27.843Z,17.08
2022-10-18T02:09:00.209Z,18.13
2022-10-18T02:11:29.882Z,18.05
2022-10-18T02:14:03.557Z,17.98
2022-10-18T02:16:52.566Z,17.80
2022-10-18T02:19:29.973Z,22.73
2022-10-18T02:21:58.336Z,17.52
2022-10-18T02:24:51.271Z,17.67
2022-10-18T02:27:25.986Z,19.60
2022-10-18T02:30:04.146Z,19.77
2022-10-18T02:32:53.331Z,21.52
2022-10-18T02:35:31.319Z,19.98
2022-10-18T02:38:02.137Z,23.92
2022-10-18T02:40:36.692Z,21.15
2022-10-18T02:43:17.064Z,17.10
2022-10-18T02:45:49.471Z,21.05
2022-10-18T02:48:36.592Z,21.13
2022-10-18T02:51:06.699Z,19.85
2022-10-18T02:53:37.496Z,20.65
2022-10-18T02:56:12.805Z,17.90
2022-10-18T02:58:43.944Z,20.17
2022-10-18T03:01:15.292Z,20.17
2022-10-18T03:03:50.112Z,21.92
2022-10-18T03:06:20.288Z,20.38
2022-10-18T03:08:55.948Z,20.57
2022-10-18T03:11:24.307Z,18.00
2022-10-18T03:13:54.733Z,20.02
2022-10-18T03:16:28.646Z,16.58
2022-10-18T03:19:01.756Z,18.23
2022-10-18T03:21:31.299Z,20.57
2022-10-18T03:24:01.681Z,18.90
2022-10-18T03:26:33.156Z,21.38
2022-10-18T03:29:02.771Z,20.60
2022-10-18T03:31:34.615Z,21.98
2022-10-18T03:34:08.762Z,19.30
2022-10-18T03:36:41.571Z,18.98
2022-10-18T03:39:10.913Z,17.45
2022-10-18T03:41:40.096Z,18.10
2022-10-18T03:44:21.286Z,19.05
2022-10-18T03:46:50.171Z,18.90
2022-10-18T03:49:18.773Z,19.52
2022-10-18T03:51:49.349Z,21.80
2022-10-18T03:54:19.335Z,18.35
2022-10-18T03:56:49.778Z,21.08
2022-10-18T03:59:20.676Z,22.47
2022-10-18T04:01:53.471Z,17.15
2022-10-18T04:04:21.814Z,20.20
2022-10-18T04:06:50.264Z,18.80
2022-10-18T04:09:20.376Z,17.42
2022-10-18T04:11:51.724Z,19.93
2022-10-18T04:14:21.798Z,29.88
2022-10-18T04:16:55.536Z,19.00
2022-10-18T04:19:24.603Z,19.80
2022-10-18T04:21:53.014Z,18.95
2022-10-18T04:24:24.149Z,19.50
2022-10-18T04:26:53.256Z,19.55
2022-10-18T04:29:38.230Z,32.40
2022-10-18T04:32:09.425Z,38.55
2022-10-18T04:34:41.094Z,28.33
2022-10-18T04:37:11.052Z,27.83
2022-10-18T04:39:49.895Z,23.30
2022-10-18T04:42:26.577Z,19.88
2022-10-18T04:44:57.947Z,18.42
2022-10-18T04:47:28.227Z,21.33
2022-10-18T04:49:56.712Z,20.40
2022-10-18T04:52:26.196Z,23.13
2022-10-18T04:54:54.889Z,22.48
2022-10-18T04:57:25.365Z,20.45
2022-10-18T04:59:56.583Z,19.90
2022-10-18T05:02:26.465Z,19.63
2022-10-18T05:04:57.893Z,19.38
2022-10-18T05:07:27.019Z,21.08
2022-10-18T05:09:55.912Z,28.70
2022-10-18T05:12:27.517Z,23.15
2022-10-18T05:14:56.998Z,22.10
2022-10-18T05:17:28.780Z,23.25
2022-10-18T05:20:01.849Z,26.90
2022-10-18T05:22:30.281Z,20.25
2022-10-18T05:25:01.769Z,21.83
2022-10-18T05:27:43.597Z,21.33
2022-10-18T05:30:16.236Z,20.75
2022-10-18T05:32:46.754Z,24.85
2022-10-18T05:35:18.675Z,20.67
2022-10-18T05:37:51.465Z,19.98
2022-10-18T05:40:21.689Z,21.53
2022-10-18T05:43:01.109Z,20.08
2022-10-18T05:45:32.509Z,20.45
2022-10-18T05:48:14.778Z,21.35
2022-10-18T05:51:41.917Z,24.73
2022-10-18T05:54:13.769Z,18.95
2022-10-18T05:57:34.333Z,21.93
2022-10-18T06:00:14.503Z,26.08
2022-10-18T06:02:44.340Z,24.65
2022-10-18T06:05:25.787Z,21.40
2022-10-18T06:08:06.588Z,21.63
2022-10-18T06:10:45.985Z,21.53
2022-10-18T06:13:24.756Z,20.73
2022-10-18T06:16:27.294Z,22.80
2022-10-18T06:19:01.535Z,19.77
2022-10-18T06:21:44.081Z,29.10
2022-10-18T06:24:31.937Z,19.03
2022-10-18T06:27:09.460Z,29.58
2022-10-18T06:29:44.295Z,18.88
2022-10-18T06:32:19.717Z,20.35
2022-10-18T06:34:53.110Z,21.88
2022-10-18T06:37:22.712Z,19.30
2022-10-18T06:40:00.264Z,21.45
2022-10-18T06:43:05.751Z,21.52
2022-10-18T06:45:57.030Z,19.42
2022-10-18T06:48:38.818Z,22.13
2022-10-18T06:51:10.669Z,20.90
2022-10-18T06:53:59.022Z,22.83
2022-10-18T06:56:36.178Z,22.15
2022-10-18T06:59:15.680Z,21.98
2022-10-18T07:01:45.749Z,20.17
2022-10-18T07:04:16.851Z,22.52
2022-10-18T07:06:47.494Z,20.13
2022-10-18T07:09:20.540Z,23.25
2022-10-18T07:11:56.878Z,24.05
2022-10-18T07:14:29.428Z,22.52
2022-10-18T07:17:07.066Z,22.58
2022-10-18T07:19:37.448Z,20.13
2022-10-18T07:22:19.120Z,21.65
2022-10-18T07:25:01.140Z,18.80
2022-10-18T07:27:39.679Z,21.50
2022-10-18T07:30:32.235Z,16.95
2022-10-18T07:33:04.675Z,17.20
2022-10-18T07:35:36.688Z,19.13
2022-10-18T07:38:13.340Z,16.30
2022-10-18T07:40:47.055Z,19.10
2022-10-18T07:43:37.726Z,18.05
2022-10-18T07:50:17.770Z,19.38
2022-10-18T07:53:57.722Z,16.63
2022-10-18T07:57:09.149Z,19.15
2022-10-18T08:00:08.491Z,18.67
2022-10-18T08:02:47.395Z,17.88
2022-10-18T08:05:18.421Z,18.08
2022-10-18T08:08:07.874Z,17.05
2022-10-18T08:14:35.531Z,17.23
2022-10-18T08:17:48.041Z,21.77
2022-10-18T08:21:08.282Z,17.45
2022-10-18T08:23:52.449Z,18.85
2022-10-18T08:26:52.200Z,21.17
2022-10-18T08:29:31.503Z,20.47
2022-10-18T08:32:19.388Z,22.77
2022-10-18T08:34:57.828Z,22.42
2022-10-18T08:37:45.748Z,22.00
2022-10-18T08:40:28.697Z,21.42
2022-10-18T08:43:09.042Z,20.03
2022-10-18T08:45:46.910Z,21.95
2022-10-18T08:48:55.028Z,24.90
2022-10-18T08:51:41.575Z,27.48
2022-10-18T09:14:28.232Z,22.38
2022-10-18T09:16:55.670Z,24.33
2022-10-18T09:19:41.928Z,26.60
2022-10-18T09:22:14.116Z,31.07
2022-10-18T09:24:46.668Z,25.75
2022-10-18T09:27:20.550Z,26.95
2022-10-18T09:29:57.589Z,24.50
2022-10-18T09:32:56.019Z,19.60
2022-10-18T09:35:25.507Z,24.93
2022-10-18T09:38:03.312Z,20.52
2022-10-18T09:40:32.950Z,20.98
2022-10-18T09:43:02.648Z,23.88
2022-10-18T09:45:35.753Z,22.70
2022-10-18T09:48:13.527Z,24.47
2022-10-18T09:50:57.702Z,32.25
2022-10-18T09:53:28.168Z,23.70
2022-10-18T09:55:57.574Z,24.17
2022-10-18T09:58:24.824Z,22.70
2022-10-18T10:00:52.213Z,28.70
2022-10-18T10:03:20.097Z,25.85
2022-10-18T10:05:47.776Z,23.75
2022-10-18T10:08:15.226Z,23.92
2022-10-18T10:10:46.992Z,22.30
2022-10-18T10:13:23.019Z,24.47
2022-10-18T10:15:58.138Z,23.83
2022-10-18T10:18:30.731Z,23.95
2022-10-18T10:21:00.429Z,24.17
2022-10-18T10:23:39.763Z,22.15
2022-10-18T10:26:29.565Z,24.73
2022-10-18T10:28:57.277Z,20.85
2022-10-18T10:31:24.708Z,25.48
2022-10-18T10:34:21.162Z,23.42
2022-10-18T10:36:52.061Z,20.05
2022-10-18T10:39:51.214Z,20.20
2022-10-18T10:42:28.436Z,23.70
2022-10-18T10:44:55.756Z,21.25
2022-10-18T10:47:29.312Z,20.05
2022-10-18T10:49:57.929Z,20.73
2022-10-18T10:52:29.949Z,18.80
2022-10-18T10:55:23.024Z,21.13
2022-10-18T10:57:52.091Z,23.83
2022-10-18T11:00:39.607Z,18.35
2022-10-18T11:03:33.785Z,18.80
2022-10-18T11:06:02.102Z,20.80
2022-10-18T11:08:36.603Z,18.30
2022-10-18T11:11:41.329Z,21.98
2022-10-18T11:14:30.221Z,18.15
2022-10-18T11:17:03.072Z,18.52
2022-10-18T11:19:34.886Z,21.90
2022-10-18T11:22:02.213Z,19.43
2022-10-18T11:24:31.185Z,20.30
2022-10-18T11:27:13.616Z,19.27
2022-10-18T11:29:53.835Z,18.50
2022-10-18T11:32:36.277Z,20.00
2022-10-18T11:35:12.861Z,20.43
2022-10-18T11:38:08.441Z,18.35
2022-10-18T11:41:07.550Z,17.02
2022-10-18T11:44:01.669Z,16.23
2022-10-18T11:46:36.200Z,20.70
2022-10-18T11:49:09.601Z,18.80
2022-10-18T11:52:11.789Z,17.75
2022-10-18T11:55:13.230Z,19.50
2022-10-18T11:57:47.454Z,18.02
2022-10-18T12:00:44.822Z,16.83
2022-10-18T12:03:55.920Z,14.80
2022-10-18T12:06:25.418Z,18.17
2022-10-18T12:08:55.892Z,19.38
2022-10-18T12:11:27.285Z,16.33
2022-10-18T12:14:02.473Z,17.35
2022-10-18T12:16:50.425Z,17.33
2022-10-18T12:19:27.453Z,16.83
2022-10-18T12:22:02.472Z,18.92
2022-10-18T12:24:30.260Z,17.05
2022-10-18T12:26:59.386Z,17.75
2022-10-18T12:29:46.687Z,16.83
2022-10-18T12:32:22.505Z,16.48
2022-10-18T12:34:52.611Z,19.50
2022-10-18T12:37:42.667Z,20.45
2022-10-18T12:40:20.427Z,26.05
2022-10-18T12:42:49.724Z,17.70
2022-10-18T12:45:19.952Z,17.98
2022-10-18T12:47:47.280Z,16.40
2022-10-18T12:50:34.978Z,17.60
2022-10-18T12:53:16.897Z,15.93
2022-10-18T12:55:46.138Z,15.77
2022-10-18T12:58:22.400Z,15.10
2022-10-18T13:00:49.739Z,15.30
2022-10-18T13:03:17.413Z,19.58
2022-10-18T13:05:56.189Z,17.27
2022-10-18T13:08:34.183Z,15.40
2022-10-18T13:11:01.534Z,20.17
2022-10-18T13:13:39.654Z,13.63
2022-10-18T13:16:23.117Z,14.90
2022-10-18T13:19:01.437Z,15.48
2022-10-18T13:21:52.918Z,16.23
2022-10-18T13:24:26.073Z,16.33
2022-10-18T13:27:24.392Z,16.73
2022-10-18T13:30:05.946Z,15.93
2022-10-18T13:32:46.349Z,15.77
2022-10-18T13:35:38.331Z,15.00
2022-10-18T13:38:05.889Z,20.92
2022-10-18T13:40:33.124Z,16.73
2022-10-18T13:43:51.538Z,13.88
2022-10-18T13:46:45.862Z,18.63
2022-10-18T13:49:40.639Z,15.30
2022-10-18T13:52:19.154Z,15.75
2022-10-18T13:55:23.719Z,18.50
2022-10-18T13:58:03.207Z,15.95
2022-10-18T14:01:03.750Z,14.80
2022-10-18T14:03:57.374Z,17.27
2022-10-18T14:06:33.915Z,15.38
2022-10-18T14:09:14.259Z,15.10
2022-10-18T14:11:55.938Z,13.02
2022-10-18T14:15:05.511Z,15.30
2022-10-18T14:18:02.719Z,15.67
2022-10-18T14:20:34.592Z,16.08
2022-10-18T14:23:14.881Z,14.48
2022-10-18T14:25:42.217Z,14.48
2022-10-18T14:28:14.480Z,15.40
2022-10-18T14:30:57.915Z,14.10
2022-10-18T14:33:30.389Z,14.07
2022-10-18T14:36:22.143Z,13.77
2022-10-18T14:38:55.068Z,15.15
2022-10-18T14:41:22.664Z,14.55
2022-10-18T14:43:50.142Z,14.07
2022-10-18T14:46:29.189Z,15.43
2022-10-18T14:49:02.034Z,14.40
2022-10-18T14:51:35.494Z,14.27
2022-10-18T14:54:03.001Z,13.95
2022-10-18T14:56:31.217Z,14.40
2022-10-18T14:59:03.462Z,14.45
2022-10-18T15:01:33.816Z,17.25
2022-10-18T15:04:06.232Z,15.50
2022-10-18T15:06:33.664Z,15.43
2022-10-18T15:09:02.317Z,14.23
2022-10-18T15:11:29.664Z,16.80
2022-10-18T15:14:08.855Z,20.88
2022-10-18T15:16:38.459Z,16.00
2022-10-18T15:19:14.771Z,15.05
2022-10-18T15:22:08.046Z,13.60
2022-10-18T15:24:41.311Z,17.10
2022-10-18T15:27:15.454Z,14.75
2022-10-18T15:29:43.934Z,16.13
2022-10-18T15:32:25.246Z,17.17
2022-10-18T15:34:52.833Z,19.33
2022-10-18T15:37:40.832Z,16.52
2022-10-18T15:40:23.302Z,16.65
2022-10-18T15:42:51.672Z,19.10
2022-10-18T15:45:25.445Z,14.23
2022-10-18T15:48:10.772Z,16.23
2022-10-18T15:50:48.070Z,20.20
2022-10-18T15:53:21.511Z,17.65
2022-10-18T15:55:52.850Z,19.83
2022-10-18T15:58:26.975Z,20.25
2022-10-18T16:00:57.005Z,18.37
2022-10-18T16:03:24.510Z,18.55
2022-10-18T16:05:54.543Z,21.60
2022-10-18T16:08:28.314Z,16.95
2022-10-18T16:10:55.653Z,18.92
2022-10-18T16:13:22.934Z,22.17
2022-10-18T16:15:50.238Z,26.00
2022-10-18T16:18:19.029Z,26.33
2022-10-18T16:20:47.131Z,27.45
2022-10-18T16:23:19.516Z,23.83
2022-10-18T16:25:46.937Z,23.77
2022-10-18T16:28:15.666Z,28.08
2022-10-18T16:30:44.387Z,31.52
2022-10-18T16:33:11.769Z,33.50
2022-10-18T16:35:39.317Z,30.05
2022-10-18T16:38:06.597Z,28.80
2022-10-18T16:40:37.607Z,28.35
2022-10-18T16:43:07.696Z,32.65
2022-10-18T16:45:35.002Z,29.35
2022-10-18T16:48:02.396Z,29.50
2022-10-18T16:50:33.080Z,29.90
2022-10-18T16:53:01.854Z,25.85
2022-10-18T16:55:29.092Z,26.42
2022-10-18T16:57:56.436Z,29.08
2022-10-18T17:00:23.712Z,24.25
2022-10-18T17:02:51.129Z,26.13
2022-10-18T17:05:18.930Z,26.95
2022-10-18T17:07:46.552Z,31.27
2022-10-18T17:10:19.155Z,53.55
2022-10-18T17:12:46.632Z,44.15
2022-10-18T17:15:13.987Z,46.13
2022-10-18T17:17:41.436Z,32.67
2022-10-18T17:20:09.012Z,51.03
2022-10-18T17:22:36.393Z,46.90
2022-10-18T17:25:03.901Z,56.17
2022-10-18T17:27:31.609Z,40.23
2022-10-18T17:29:59.130Z,43.85
2022-10-18T17:32:26.541Z,46.17
2022-10-18T17:34:53.801Z,46.67
2022-10-18T17:37:21.133Z,42.53
2022-10-18T17:39:48.417Z,39.77
2022-10-18T17:42:15.735Z,40.83
2022-10-18T17:44:43.380Z,49.80
2022-10-18T17:47:10.681Z,45.25
2022-10-18T17:49:37.908Z,35.53
2022-10-18T17:52:07.005Z,37.73
2022-10-18T17:54:34.447Z,42.97
2022-10-18T17:57:01.715Z,38.15
2022-10-18T17:59:29.033Z,39.20
2022-10-18T18:01:56.472Z,39.75
2022-10-18T18:04:24.253Z,35.30
2022-10-18T18:06:52.936Z,39.58
2022-10-18T18:09:20.972Z,36.00
2022-10-18T18:11:48.975Z,36.78
2022-10-18T18:14:16.276Z,34.08
2022-10-18T18:16:45.024Z,34.70
2022-10-18T18:19:12.489Z,33.65
2022-10-18T18:21:40.137Z,33.20
2022-10-18T18:24:07.669Z,34.75
2022-10-18T18:26:35.147Z,37.17
2022-10-18T18:31:34.358Z,33.15
2022-10-18T18:34:06.044Z,34.70
2022-10-18T18:36:33.651Z,37.80
2022-10-18T18:39:01.347Z,36.65
2022-10-18T18:41:28.759Z,38.23
2022-10-18T18:44:01.068Z,37.88
2022-10-18T18:46:29.974Z,39.05
2022-10-18T18:48:57.421Z,39.38
2022-10-18T18:51:25.033Z,37.45
2022-10-18T18:53:52.430Z,35.77
2022-10-18T18:58:53.817Z,35.28
2022-10-18T19:01:40.405Z,36.40
2022-10-18T19:04:08.587Z,38.70
2022-10-18T19:06:40.790Z,41.83
2022-10-18T19:09:12.611Z,38.72
2022-10-18T19:11:40.111Z,44.08
2022-10-18T19:14:08.025Z,38.88
2022-10-18T19:16:39.365Z,42.78
2022-10-18T19:19:17.640Z,47.87
2022-10-18T19:21:46.775Z,44.97
2022-10-18T19:24:14.314Z,43.72
2022-10-18T19:26:49.629Z,42.60
2022-10-18T19:29:22.026Z,40.80
2022-10-18T19:31:53.296Z,46.37
2022-10-18T19:34:21.075Z,42.17
2022-10-18T19:36:48.785Z,41.35
2022-10-18T19:39:26.874Z,41.25
2022-10-18T19:41:56.174Z,44.15
2022-10-18T19:44:24.026Z,41.43
2022-10-18T19:46:51.502Z,38.97
2022-10-18T19:49:18.953Z,42.70
2022-10-18T19:51:46.385Z,42.53
2022-10-18T19:54:14.099Z,40.35
2022-10-18T19:56:41.898Z,35.53
2022-10-18T19:59:09.517Z,42.28
2022-10-18T20:01:36.972Z,44.72
2022-10-18T20:04:04.693Z,39.95
2022-10-18T20:06:32.160Z,39.95
2022-10-18T20:08:59.491Z,42.40
2022-10-18T20:11:28.051Z,40.53
2022-10-18T20:13:55.580Z,40.40
2022-10-18T20:16:28.110Z,42.22
2022-10-18T20:19:00.016Z,45.33
2022-10-18T20:21:28.508Z,50.93
2022-10-18T20:23:56.077Z,50.47
2022-10-18T20:26:25.386Z,59.30
2022-10-18T20:28:57.381Z,50.00
2022-10-18T20:31:26.814Z,48.17
2022-10-18T20:33:55.513Z,45.33
2022-10-18T20:36:22.946Z,46.78
2022-10-18T20:38:50.318Z,51.22
2022-10-18T20:41:28.199Z,47.08
2022-10-18T20:43:59.905Z,43.88
2022-10-18T20:46:28.319Z,43.23
2022-10-18T20:48:55.663Z,44.55
2022-10-18T20:51:23.162Z,46.65
2022-10-18T20:53:50.732Z,45.13
2022-10-18T20:56:20.508Z,42.15
2022-10-18T20:58:49.567Z,38.43
2022-10-18T21:01:17.943Z,43.95
2022-10-18T21:03:45.979Z,39.13
2022-10-18T21:06:15.024Z,39.75
2022-10-18T21:08:42.835Z,40.40
2022-10-18T21:11:10.266Z,40.73
2022-10-18T21:13:38.033Z,43.30
2022-10-18T21:16:05.722Z,42.60
2022-10-18T21:18:33.851Z,44.13
2022-10-18T21:21:16.698Z,39.80
2022-10-18T21:23:44.319Z,40.67
2022-10-18T21:26:19.671Z,40.63
2022-10-18T21:28:49.261Z,41.05
2022-10-18T21:31:43.479Z,38.20
2022-10-18T21:34:15.348Z,37.53
2022-10-18T21:36:43.776Z,38.07
2022-10-18T21:39:13.820Z,36.38
2022-10-18T21:41:41.873Z,40.03
2022-10-18T21:44:10.803Z,35.38
2022-10-18T21:46:39.535Z,35.40
2022-10-18T21:49:07.196Z,40.77
2022-10-18T21:51:34.525Z,39.38
2022-10-18T21:54:01.856Z,36.20
2022-10-18T21:56:31.076Z,34.55
2022-10-18T21:58:58.403Z,33.47
2022-10-18T22:01:33.831Z,35.47
2022-10-18T22:04:02.129Z,33.60
2022-10-18T22:06:32.279Z,32.17
2022-10-18T22:09:01.859Z,33.22
2022-10-18T22:11:38.734Z,34.17
2022-10-18T22:14:05.993Z,39.67
2022-10-18T22:16:33.174Z,35.00
2022-10-18T22:19:01.441Z,33.53
2022-10-18T22:21:28.909Z,32.42
2022-10-18T22:23:59.499Z,30.60
2022-10-18T22:26:32.838Z,29.40
2022-10-18T22:29:01.836Z,34.20
2022-10-18T22:31:30.784Z,29.38
2022-10-18T22:34:03.388Z,29.33
2022-10-18T22:36:32.614Z,30.92
2022-10-18T22:38:59.864Z,28.63
2022-10-18T22:41:27.184Z,28.20
2022-10-18T22:43:55.629Z,28.65
2022-10-18T22:46:26.064Z,29.05
2022-10-18T22:48:53.446Z,31.08
2022-10-18T22:51:20.998Z,29.70
2022-10-18T22:53:48.244Z,28.92
2022-10-18T22:56:17.572Z,26.63
2022-10-18T22:58:44.824Z,29.15
2022-10-18T23:01:13.601Z,26.52
2022-10-18T23:03:40.800Z,28.53
2022-10-18T23:06:24.897Z,28.13
2022-10-18T23:08:53.159Z,24.88
2022-10-18T23:11:20.609Z,26.67
2022-10-18T23:13:47.950Z,26.90
2022-10-18T23:16:15.211Z,25.03
2022-10-18T23:18:42.559Z,25.80
2022-10-18T23:21:11.377Z,40.95
2022-10-18T23:23:39.517Z,25.38
2022-10-18T23:26:08.404Z,25.63
2022-10-18T23:28:36.450Z,28.70
2022-10-18T23:31:08.780Z,29.10
2022-10-18T23:33:36.220Z,31.65
2022-10-18T23:36:04.125Z,29.45
2022-10-18T23:38:31.709Z,28.95
2022-10-18T23:40:59.121Z,32.53
2022-10-18T23:43:26.480Z,31.67
2022-10-18T23:45:53.697Z,27.95
2022-10-18T23:48:21.027Z,28.48
2022-10-18T23:50:48.313Z,26.52
2022-10-18T23:53:15.681Z,28.20
2022-10-18T23:55:53.841Z,29.15
2022-10-18T23:58:21.374Z,26.40
